sensor_id;sensor_type;location;lat;lon;timestamp;temperature;humidity
5938;DHT22;2994;51.220;4.412;2023-08-31T00:02:10;17.03;69.10
5938;DHT22;2994;51.220;4.412;2023-08-31T00:04:36;17.03;69.20
5938;DHT22;2994;51.220;4.412;2023-08-31T00:07:02;17.02;69.18
5938;DHT22;2994;51.220;4.412;2023-08-31T00:09:27;17.01;69.24
5938;DHT22;2994;51.220;4.412;2023-08-31T00:11:54;17.00;69.41
5938;DHT22;2994;51.220;4.412;2023-08-31T00:14:22;17.02;69.48
5938;DHT22;2994;51.220;4.412;2023-08-31T00:16:47;17.00;69.49
5938;DHT22;2994;51.220;4.412;2023-08-31T00:19:14;16.99;69.45
5938;DHT22;2994;51.220;4.412;2023-08-31T00:21:40;17.00;69.47
5938;DHT22;2994;51.220;4.412;2023-08-31T00:24:05;16.96;69.58
5938;DHT22;2994;51.220;4.412;2023-08-31T00:26:31;16.94;69.74
5938;DHT22;2994;51.220;4.412;2023-08-31T00:28:57;16.94;69.76
5938;DHT22;2994;51.220;4.412;2023-08-31T00:31:23;16.89;70.10
5938;DHT22;2994;51.220;4.412;2023-08-31T00:33:49;16.90;69.96
5938;DHT22;2994;51.220;4.412;2023-08-31T00:36:14;16.88;70.05
5938;DHT22;2994;51.220;4.412;2023-08-31T00:38:40;16.87;70.19
5938;DHT22;2994;51.220;4.412;2023-08-31T00:41:06;16.88;70.22
5938;DHT22;2994;51.220;4.412;2023-08-31T00:43:31;16.87;70.42
5938;DHT22;2994;51.220;4.412;2023-08-31T00:45:58;16.84;70.48
5938;DHT22;2994;51.220;4.412;2023-08-31T00:48:24;16.85;70.39
5938;DHT22;2994;51.220;4.412;2023-08-31T00:50:50;16.86;70.37
5938;DHT22;2994;51.220;4.412;2023-08-31T00:53:17;16.86;70.38
5938;DHT22;2994;51.220;4.412;2023-08-31T00:55:44;16.86;70.30
5938;DHT22;2994;51.220;4.412;2023-08-31T00:58:09;16.85;70.46
5938;DHT22;2994;51.220;4.412;2023-08-31T01:03:31;16.84;70.51
5938;DHT22;2994;51.220;4.412;2023-08-31T01:06:07;16.85;70.43
5938;DHT22;2994;51.220;4.412;2023-08-31T01:12:03;16.80;70.64
5938;DHT22;2994;51.220;4.412;2023-08-31T01:14:37;16.78;70.72
5938;DHT22;2994;51.220;4.412;2023-08-31T01:17:05;16.78;70.86
5938;DHT22;2994;51.220;4.412;2023-08-31T01:19:48;16.76;70.89
5938;DHT22;2994;51.220;4.412;2023-08-31T01:22:21;16.74;70.93
5938;DHT22;2994;51.220;4.412;2023-08-31T01:24:50;16.75;71.13
5938;DHT22;2994;51.220;4.412;2023-08-31T01:27:16;16.73;71.03
5938;DHT22;2994;51.220;4.412;2023-08-31T01:29:42;16.73;71.08
5938;DHT22;2994;51.220;4.412;2023-08-31T01:32:08;16.74;71.10
5938;DHT22;2994;51.220;4.412;2023-08-31T01:34:33;16.75;71.09
5938;DHT22;2994;51.220;4.412;2023-08-31T01:37:03;16.74;71.18
5938;DHT22;2994;51.220;4.412;2023-08-31T01:39:41;16.66;71.74
5938;DHT22;2994;51.220;4.412;2023-08-31T01:42:11;16.71;71.64
5938;DHT22;2994;51.220;4.412;2023-08-31T01:44:39;16.72;71.76
5938;DHT22;2994;51.220;4.412;2023-08-31T01:47:06;16.71;71.66
5938;DHT22;2994;51.220;4.412;2023-08-31T01:49:38;16.73;71.76
5938;DHT22;2994;51.220;4.412;2023-08-31T01:52:04;16.74;71.73
5938;DHT22;2994;51.220;4.412;2023-08-31T01:54:31;16.74;71.65
5938;DHT22;2994;51.220;4.412;2023-08-31T01:56:56;16.73;71.71
5938;DHT22;2994;51.220;4.412;2023-08-31T01:59:22;16.75;71.61
5938;DHT22;2994;51.220;4.412;2023-08-31T02:01:47;16.76;71.60
5938;DHT22;2994;51.220;4.412;2023-08-31T02:04:13;16.76;71.61
5938;DHT22;2994;51.220;4.412;2023-08-31T02:06:38;16.76;71.53
5938;DHT22;2994;51.220;4.412;2023-08-31T02:09:03;16.76;71.44
5938;DHT22;2994;51.220;4.412;2023-08-31T02:11:30;16.75;71.54
5938;DHT22;2994;51.220;4.412;2023-08-31T02:13:57;16.75;71.43
5938;DHT22;2994;51.220;4.412;2023-08-31T02:16:23;16.74;71.48
5938;DHT22;2994;51.220;4.412;2023-08-31T02:18:48;16.75;71.48
5938;DHT22;2994;51.220;4.412;2023-08-31T02:21:14;16.73;71.33
5938;DHT22;2994;51.220;4.412;2023-08-31T02:23:39;16.72;71.31
5938;DHT22;2994;51.220;4.412;2023-08-31T02:26:04;16.74;71.31
5938;DHT22;2994;51.220;4.412;2023-08-31T02:28:30;16.73;71.26
5938;DHT22;2994;51.220;4.412;2023-08-31T02:31:00;16.72;71.32
5938;DHT22;2994;51.220;4.412;2023-08-31T02:33:26;16.73;71.19
5938;DHT22;2994;51.220;4.412;2023-08-31T02:35:55;16.74;71.23
5938;DHT22;2994;51.220;4.412;2023-08-31T02:38:21;16.74;71.13
5938;DHT22;2994;51.220;4.412;2023-08-31T02:40:47;16.74;71.17
5938;DHT22;2994;51.220;4.412;2023-08-31T02:43:13;16.73;71.22
5938;DHT22;2994;51.220;4.412;2023-08-31T02:45:39;16.72;71.21
5938;DHT22;2994;51.220;4.412;2023-08-31T02:48:06;16.72;71.11
5938;DHT22;2994;51.220;4.412;2023-08-31T02:50:33;16.70;71.14
5938;DHT22;2994;51.220;4.412;2023-08-31T02:52:59;16.69;71.22
5938;DHT22;2994;51.220;4.412;2023-08-31T02:55:24;16.69;71.13
5938;DHT22;2994;51.220;4.412;2023-08-31T02:57:50;16.69;71.06
5938;DHT22;2994;51.220;4.412;2023-08-31T03:00:15;16.67;71.25
5938;DHT22;2994;51.220;4.412;2023-08-31T03:02:41;16.67;71.32
5938;DHT22;2994;51.220;4.412;2023-08-31T03:05:08;16.66;71.25
5938;DHT22;2994;51.220;4.412;2023-08-31T03:07:34;16.66;71.24
5938;DHT22;2994;51.220;4.412;2023-08-31T03:10:00;16.66;71.29
5938;DHT22;2994;51.220;4.412;2023-08-31T03:12:25;16.66;71.22
5938;DHT22;2994;51.220;4.412;2023-08-31T03:14:50;16.64;71.30
5938;DHT22;2994;51.220;4.412;2023-08-31T03:17:16;16.64;71.28
5938;DHT22;2994;51.220;4.412;2023-08-31T03:19:41;16.62;71.40
5938;DHT22;2994;51.220;4.412;2023-08-31T03:22:07;16.63;71.38
5938;DHT22;2994;51.220;4.412;2023-08-31T03:24:33;16.62;71.45
5938;DHT22;2994;51.220;4.412;2023-08-31T03:26:58;16.61;71.46
5938;DHT22;2994;51.220;4.412;2023-08-31T03:29:24;16.60;71.50
5938;DHT22;2994;51.220;4.412;2023-08-31T03:31:49;16.59;71.54
5938;DHT22;2994;51.220;4.412;2023-08-31T03:34:15;16.60;71.55
5938;DHT22;2994;51.220;4.412;2023-08-31T03:36:40;16.59;71.61
5938;DHT22;2994;51.220;4.412;2023-08-31T03:39:06;16.59;71.62
5938;DHT22;2994;51.220;4.412;2023-08-31T03:41:32;16.60;71.63
5938;DHT22;2994;51.220;4.412;2023-08-31T03:43:57;16.60;71.55
5938;DHT22;2994;51.220;4.412;2023-08-31T03:46:23;16.54;71.67
5938;DHT22;2994;51.220;4.412;2023-08-31T03:48:49;16.55;71.68
5938;DHT22;2994;51.220;4.412;2023-08-31T03:51:15;16.54;71.71
5938;DHT22;2994;51.220;4.412;2023-08-31T03:53:40;16.52;71.78
5938;DHT22;2994;51.220;4.412;2023-08-31T03:56:05;16.51;71.85
5938;DHT22;2994;51.220;4.412;2023-08-31T03:58:31;16.51;71.84
5938;DHT22;2994;51.220;4.412;2023-08-31T04:00:56;16.52;71.82
5938;DHT22;2994;51.220;4.412;2023-08-31T04:03:22;16.50;71.89
5938;DHT22;2994;51.220;4.412;2023-08-31T04:05:53;16.52;71.84
5938;DHT22;2994;51.220;4.412;2023-08-31T04:08:19;16.51;71.80
5938;DHT22;2994;51.220;4.412;2023-08-31T04:10:44;16.54;71.81
5938;DHT22;2994;51.220;4.412;2023-08-31T04:13:10;16.51;71.82
5938;DHT22;2994;51.220;4.412;2023-08-31T04:15:35;16.54;71.77
5938;DHT22;2994;51.220;4.412;2023-08-31T04:18:00;16.51;71.80
5938;DHT22;2994;51.220;4.412;2023-08-31T04:20:26;16.51;71.92
5938;DHT22;2994;51.220;4.412;2023-08-31T04:22:51;16.54;71.95
5938;DHT22;2994;51.220;4.412;2023-08-31T04:25:17;16.54;72.02
5938;DHT22;2994;51.220;4.412;2023-08-31T04:27:42;16.54;71.90
5938;DHT22;2994;51.220;4.412;2023-08-31T04:30:09;16.54;71.98
5938;DHT22;2994;51.220;4.412;2023-08-31T04:32:35;16.49;72.07
5938;DHT22;2994;51.220;4.412;2023-08-31T04:35:03;16.51;71.98
5938;DHT22;2994;51.220;4.412;2023-08-31T04:37:29;16.50;72.03
5938;DHT22;2994;51.220;4.412;2023-08-31T04:39:55;16.52;72.10
5938;DHT22;2994;51.220;4.412;2023-08-31T04:42:20;16.51;71.93
5938;DHT22;2994;51.220;4.412;2023-08-31T04:44:46;16.52;72.06
5938;DHT22;2994;51.220;4.412;2023-08-31T04:47:11;16.50;72.19
5938;DHT22;2994;51.220;4.412;2023-08-31T04:49:37;16.48;72.22
5938;DHT22;2994;51.220;4.412;2023-08-31T04:52:02;16.49;72.29
5938;DHT22;2994;51.220;4.412;2023-08-31T04:54:28;16.49;72.18
5938;DHT22;2994;51.220;4.412;2023-08-31T04:56:53;16.48;72.25
5938;DHT22;2994;51.220;4.412;2023-08-31T04:59:18;16.51;72.21
5938;DHT22;2994;51.220;4.412;2023-08-31T05:01:44;16.50;72.36
5938;DHT22;2994;51.220;4.412;2023-08-31T05:04:09;16.50;72.43
5938;DHT22;2994;51.220;4.412;2023-08-31T05:06:35;16.51;72.47
5938;DHT22;2994;51.220;4.412;2023-08-31T05:09:00;16.54;72.37
5938;DHT22;2994;51.220;4.412;2023-08-31T05:11:26;16.52;72.29
5938;DHT22;2994;51.220;4.412;2023-08-31T05:13:51;16.52;72.44
5938;DHT22;2994;51.220;4.412;2023-08-31T05:16:17;16.54;72.54
5938;DHT22;2994;51.220;4.412;2023-08-31T05:18:42;16.49;72.85
5938;DHT22;2994;51.220;4.412;2023-08-31T05:21:08;16.51;72.87
5938;DHT22;2994;51.220;4.412;2023-08-31T05:23:34;16.54;72.96
5938;DHT22;2994;51.220;4.412;2023-08-31T05:25:59;16.55;72.83
5938;DHT22;2994;51.220;4.412;2023-08-31T05:28:27;16.57;72.87
5938;DHT22;2994;51.220;4.412;2023-08-31T05:30:56;16.54;73.18
5938;DHT22;2994;51.220;4.412;2023-08-31T05:33:23;16.56;73.06
5938;DHT22;2994;51.220;4.412;2023-08-31T05:35:50;16.58;73.15
5938;DHT22;2994;51.220;4.412;2023-08-31T05:38:16;16.58;73.16
5938;DHT22;2994;51.220;4.412;2023-08-31T05:40:41;16.60;73.25
5938;DHT22;2994;51.220;4.412;2023-08-31T05:43:11;16.64;73.23
5938;DHT22;2994;51.220;4.412;2023-08-31T05:45:36;16.64;73.27
5938;DHT22;2994;51.220;4.412;2023-08-31T05:48:02;16.64;73.35
5938;DHT22;2994;51.220;4.412;2023-08-31T05:50:27;16.65;73.32
5938;DHT22;2994;51.220;4.412;2023-08-31T05:52:54;16.65;73.30
5938;DHT22;2994;51.220;4.412;2023-08-31T05:55:19;16.67;73.35
5938;DHT22;2994;51.220;4.412;2023-08-31T05:57:45;16.71;73.24
5938;DHT22;2994;51.220;4.412;2023-08-31T06:00:11;16.64;73.56
5938;DHT22;2994;51.220;4.412;2023-08-31T06:02:36;16.72;73.38
5938;DHT22;2994;51.220;4.412;2023-08-31T06:05:02;16.77;73.24
5938;DHT22;2994;51.220;4.412;2023-08-31T06:07:29;16.79;73.15
5938;DHT22;2994;51.220;4.412;2023-08-31T06:09:55;16.82;73.14
5938;DHT22;2994;51.220;4.412;2023-08-31T06:12:21;16.82;73.12
5938;DHT22;2994;51.220;4.412;2023-08-31T06:14:46;16.89;73.06
5938;DHT22;2994;51.220;4.412;2023-08-31T06:17:12;16.91;72.92
5938;DHT22;2994;51.220;4.412;2023-08-31T06:19:39;16.93;72.99
5938;DHT22;2994;51.220;4.412;2023-08-31T06:22:04;16.94;72.99
5938;DHT22;2994;51.220;4.412;2023-08-31T06:24:30;16.98;73.03
5938;DHT22;2994;51.220;4.412;2023-08-31T06:26:57;16.99;73.06
5938;DHT22;2994;51.220;4.412;2023-08-31T06:29:23;16.98;73.08
5938;DHT22;2994;51.220;4.412;2023-08-31T06:31:48;16.95;73.04
5938;DHT22;2994;51.220;4.412;2023-08-31T06:34:14;16.98;72.99
5938;DHT22;2994;51.220;4.412;2023-08-31T06:36:39;16.99;72.95
5938;DHT22;2994;51.220;4.412;2023-08-31T06:39:06;16.99;72.87
5938;DHT22;2994;51.220;4.412;2023-08-31T06:41:41;16.99;72.97
5938;DHT22;2994;51.220;4.412;2023-08-31T06:44:07;17.00;72.74
5938;DHT22;2994;51.220;4.412;2023-08-31T06:46:42;17.00;72.80
5938;DHT22;2994;51.220;4.412;2023-08-31T06:49:07;16.99;72.77
5938;DHT22;2994;51.220;4.412;2023-08-31T06:51:33;17.03;72.78
5938;DHT22;2994;51.220;4.412;2023-08-31T06:54:07;17.04;72.83
5938;DHT22;2994;51.220;4.412;2023-08-31T06:56:43;17.05;72.80
5938;DHT22;2994;51.220;4.412;2023-08-31T06:59:08;17.05;72.83
5938;DHT22;2994;51.220;4.412;2023-08-31T07:01:35;17.07;72.89
5938;DHT22;2994;51.220;4.412;2023-08-31T07:06:42;17.14;72.82
5938;DHT22;2994;51.220;4.412;2023-08-31T07:09:11;17.17;72.83
5938;DHT22;2994;51.220;4.412;2023-08-31T07:35:10;17.48;72.66
5938;DHT22;2994;51.220;4.412;2023-08-31T07:40:11;17.60;72.00
5938;DHT22;2994;51.220;4.412;2023-08-31T07:42:38;17.67;71.77
5938;DHT22;2994;51.220;4.412;2023-08-31T07:45:06;17.77;71.46
5938;DHT22;2994;51.220;4.412;2023-08-31T07:47:32;17.83;71.25
5938;DHT22;2994;51.220;4.412;2023-08-31T07:50:08;17.94;71.00
5938;DHT22;2994;51.220;4.412;2023-08-31T07:52:40;18.04;70.64
5938;DHT22;2994;51.220;4.412;2023-08-31T08:15:45;18.76;68.13
5938;DHT22;2994;51.220;4.412;2023-08-31T08:18:11;18.85;67.84
5938;DHT22;2994;51.220;4.412;2023-08-31T08:20:41;18.85;67.88
5938;DHT22;2994;51.220;4.412;2023-08-31T08:23:06;18.95;67.72
5938;DHT22;2994;51.220;4.412;2023-08-31T08:25:32;18.99;67.39
5938;DHT22;2994;51.220;4.412;2023-08-31T08:27:58;19.05;67.30
5938;DHT22;2994;51.220;4.412;2023-08-31T08:30:23;19.15;66.99
5938;DHT22;2994;51.220;4.412;2023-08-31T08:32:49;19.24;66.67
5938;DHT22;2994;51.220;4.412;2023-08-31T08:35:14;19.30;66.43
5938;DHT22;2994;51.220;4.412;2023-08-31T08:37:40;19.35;66.27
5938;DHT22;2994;51.220;4.412;2023-08-31T08:40:06;19.43;65.91
5938;DHT22;2994;51.220;4.412;2023-08-31T08:42:32;19.51;65.54
5938;DHT22;2994;51.220;4.412;2023-08-31T08:45:05;19.57;65.85
5938;DHT22;2994;51.220;4.412;2023-08-31T08:47:31;19.66;65.37
5938;DHT22;2994;51.220;4.412;2023-08-31T08:49:58;19.79;65.04
5938;DHT22;2994;51.220;4.412;2023-08-31T08:52:25;19.84;64.79
5938;DHT22;2994;51.220;4.412;2023-08-31T08:54:53;19.86;64.76
5938;DHT22;2994;51.220;4.412;2023-08-31T08:57:19;19.90;64.85
5938;DHT22;2994;51.220;4.412;2023-08-31T08:59:44;19.96;64.61
5938;DHT22;2994;51.220;4.412;2023-08-31T09:02:11;20.05;64.58
5938;DHT22;2994;51.220;4.412;2023-08-31T09:04:37;20.17;64.14
5938;DHT22;2994;51.220;4.412;2023-08-31T09:07:03;20.28;64.02
5938;DHT22;2994;51.220;4.412;2023-08-31T09:09:28;20.40;63.85
5938;DHT22;2994;51.220;4.412;2023-08-31T09:11:54;20.51;63.32
5938;DHT22;2994;51.220;4.412;2023-08-31T09:14:23;20.59;62.37
5938;DHT22;2994;51.220;4.412;2023-08-31T09:16:51;20.48;62.73
5938;DHT22;2994;51.220;4.412;2023-08-31T09:19:22;20.51;62.89
5938;DHT22;2994;51.220;4.412;2023-08-31T09:21:52;20.53;63.21
5938;DHT22;2994;51.220;4.412;2023-08-31T09:24:20;20.68;62.62
5938;DHT22;2994;51.220;4.412;2023-08-31T09:26:52;20.70;62.52
5938;DHT22;2994;51.220;4.412;2023-08-31T09:29:18;20.68;62.38
5938;DHT22;2994;51.220;4.412;2023-08-31T09:31:44;20.74;62.08
5938;DHT22;2994;51.220;4.412;2023-08-31T09:34:10;20.72;62.12
5938;DHT22;2994;51.220;4.412;2023-08-31T09:36:37;20.78;62.06
5938;DHT22;2994;51.220;4.412;2023-08-31T09:39:04;20.79;61.95
5938;DHT22;2994;51.220;4.412;2023-08-31T09:41:30;20.74;60.85
5938;DHT22;2994;51.220;4.412;2023-08-31T09:43:56;20.92;59.97
5938;DHT22;2994;51.220;4.412;2023-08-31T09:46:22;20.92;60.40
5938;DHT22;2994;51.220;4.412;2023-08-31T09:48:48;20.96;60.32
5938;DHT22;2994;51.220;4.412;2023-08-31T09:51:14;21.02;59.94
5938;DHT22;2994;51.220;4.412;2023-08-31T09:53:42;21.13;59.77
5938;DHT22;2994;51.220;4.412;2023-08-31T09:56:14;20.89;60.04
5938;DHT22;2994;51.220;4.412;2023-08-31T09:58:42;21.23;59.32
5938;DHT22;2994;51.220;4.412;2023-08-31T10:01:16;21.42;58.36
5938;DHT22;2994;51.220;4.412;2023-08-31T10:03:42;21.52;56.48
5938;DHT22;2994;51.220;4.412;2023-08-31T10:06:08;21.67;55.74
5938;DHT22;2994;51.220;4.412;2023-08-31T10:08:34;21.37;55.57
5938;DHT22;2994;51.220;4.412;2023-08-31T10:11:01;21.30;55.70
5938;DHT22;2994;51.220;4.412;2023-08-31T10:13:31;21.35;55.35
5938;DHT22;2994;51.220;4.412;2023-08-31T10:16:04;21.49;54.16
5938;DHT22;2994;51.220;4.412;2023-08-31T10:18:30;21.49;54.42
5938;DHT22;2994;51.220;4.412;2023-08-31T10:20:57;21.31;55.33
5938;DHT22;2994;51.220;4.412;2023-08-31T10:23:22;21.52;53.58
5938;DHT22;2994;51.220;4.412;2023-08-31T10:28:23;21.69;53.53
5938;DHT22;2994;51.220;4.412;2023-08-31T10:31:01;21.74;53.60
5938;DHT22;2994;51.220;4.412;2023-08-31T10:36:18;21.76;53.78
5938;DHT22;2994;51.220;4.412;2023-08-31T10:39:00;21.59;53.66
5938;DHT22;2994;51.220;4.412;2023-08-31T10:41:32;21.67;53.84
5938;DHT22;2994;51.220;4.412;2023-08-31T10:43:58;21.67;53.91
5938;DHT22;2994;51.220;4.412;2023-08-31T10:49:01;21.70;53.41
5938;DHT22;2994;51.220;4.412;2023-08-31T10:51:30;21.85;52.65
5938;DHT22;2994;51.220;4.412;2023-08-31T10:54:31;21.85;52.35
5938;DHT22;2994;51.220;4.412;2023-08-31T10:59:52;22.08;52.62
5938;DHT22;2994;51.220;4.412;2023-08-31T11:02:33;22.32;51.86
5938;DHT22;2994;51.220;4.412;2023-08-31T11:05:01;22.25;51.63
5938;DHT22;2994;51.220;4.412;2023-08-31T11:07:29;22.42;51.40
5938;DHT22;2994;51.220;4.412;2023-08-31T11:12:39;22.40;50.97
5938;DHT22;2994;51.220;4.412;2023-08-31T11:15:05;22.27;50.99
5938;DHT22;2994;51.220;4.412;2023-08-31T11:17:31;22.07;51.18
5938;DHT22;2994;51.220;4.412;2023-08-31T11:20:00;22.04;51.08
5938;DHT22;2994;51.220;4.412;2023-08-31T11:22:27;21.93;51.17
5938;DHT22;2994;51.220;4.412;2023-08-31T11:24:52;21.90;51.62
5938;DHT22;2994;51.220;4.412;2023-08-31T11:27:22;21.92;51.32
5938;DHT22;2994;51.220;4.412;2023-08-31T11:29:48;21.94;51.49
5938;DHT22;2994;51.220;4.412;2023-08-31T11:32:13;21.77;50.59
5938;DHT22;2994;51.220;4.412;2023-08-31T11:34:44;21.92;51.23
5938;DHT22;2994;51.220;4.412;2023-08-31T11:37:11;22.12;51.68
5938;DHT22;2994;51.220;4.412;2023-08-31T11:39:40;22.22;51.63
5938;DHT22;2994;51.220;4.412;2023-08-31T11:42:05;21.98;51.92
5938;DHT22;2994;51.220;4.412;2023-08-31T11:44:31;21.90;52.46
5938;DHT22;2994;51.220;4.412;2023-08-31T11:46:57;21.81;52.55
5938;DHT22;2994;51.220;4.412;2023-08-31T11:49:22;21.64;52.57
5938;DHT22;2994;51.220;4.412;2023-08-31T11:51:49;21.55;53.62
5938;DHT22;2994;51.220;4.412;2023-08-31T11:54:16;21.60;52.46
5938;DHT22;2994;51.220;4.412;2023-08-31T11:56:43;21.73;51.90
5938;DHT22;2994;51.220;4.412;2023-08-31T11:59:14;21.72;51.68
5938;DHT22;2994;51.220;4.412;2023-08-31T12:01:42;21.67;52.38
5938;DHT22;2994;51.220;4.412;2023-08-31T12:04:12;21.70;52.07
5938;DHT22;2994;51.220;4.412;2023-08-31T12:06:37;21.79;51.26
5938;DHT22;2994;51.220;4.412;2023-08-31T12:09:07;21.99;50.92
5938;DHT22;2994;51.220;4.412;2023-08-31T12:11:33;22.39;49.42
5938;DHT22;2994;51.220;4.412;2023-08-31T12:14:03;22.61;48.31
5938;DHT22;2994;51.220;4.412;2023-08-31T12:16:33;22.54;48.98
5938;DHT22;2994;51.220;4.412;2023-08-31T12:18:59;22.77;49.02
5938;DHT22;2994;51.220;4.412;2023-08-31T12:21:25;23.10;47.60
5938;DHT22;2994;51.220;4.412;2023-08-31T12:23:50;23.42;46.27
5938;DHT22;2994;51.220;4.412;2023-08-31T12:26:16;23.69;45.28
5938;DHT22;2994;51.220;4.412;2023-08-31T12:28:41;23.86;44.90
5938;DHT22;2994;51.220;4.412;2023-08-31T12:31:07;23.76;44.54
5938;DHT22;2994;51.220;4.412;2023-08-31T12:33:32;23.79;44.74
5938;DHT22;2994;51.220;4.412;2023-08-31T12:35:57;23.91;44.93
5938;DHT22;2994;51.220;4.412;2023-08-31T12:38:23;23.96;45.45
5938;DHT22;2994;51.220;4.412;2023-08-31T12:40:52;23.87;46.29
5938;DHT22;2994;51.220;4.412;2023-08-31T12:48:26;23.50;44.69
5938;DHT22;2994;51.220;4.412;2023-08-31T12:50:53;23.82;44.06
5938;DHT22;2994;51.220;4.412;2023-08-31T12:53:23;23.59;45.48
5938;DHT22;2994;51.220;4.412;2023-08-31T12:55:49;23.62;45.35
5938;DHT22;2994;51.220;4.412;2023-08-31T12:58:15;23.69;45.59
5938;DHT22;2994;51.220;4.412;2023-08-31T13:00:41;23.68;45.86
5938;DHT22;2994;51.220;4.412;2023-08-31T13:03:08;24.03;45.25
5938;DHT22;2994;51.220;4.412;2023-08-31T13:05:34;23.79;46.25
5938;DHT22;2994;51.220;4.412;2023-08-31T13:08:00;23.66;47.02
5938;DHT22;2994;51.220;4.412;2023-08-31T13:10:26;23.76;47.13
5938;DHT22;2994;51.220;4.412;2023-08-31T13:12:54;23.99;46.38
5938;DHT22;2994;51.220;4.412;2023-08-31T13:15:20;23.71;46.15
5938;DHT22;2994;51.220;4.412;2023-08-31T13:17:48;23.45;46.98
5938;DHT22;2994;51.220;4.412;2023-08-31T13:20:13;23.31;46.92
5938;DHT22;2994;51.220;4.412;2023-08-31T13:22:39;23.17;47.76
5938;DHT22;2994;51.220;4.412;2023-08-31T13:25:04;23.26;47.41
5938;DHT22;2994;51.220;4.412;2023-08-31T13:27:30;23.38;47.13
5938;DHT22;2994;51.220;4.412;2023-08-31T13:29:58;23.40;47.06
5938;DHT22;2994;51.220;4.412;2023-08-31T13:32:24;23.55;47.26
5938;DHT22;2994;51.220;4.412;2023-08-31T13:34:52;23.65;46.85
5938;DHT22;2994;51.220;4.412;2023-08-31T13:37:21;23.44;47.73
5938;DHT22;2994;51.220;4.412;2023-08-31T13:39:50;23.34;47.79
5938;DHT22;2994;51.220;4.412;2023-08-31T13:42:15;23.22;48.05
5938;DHT22;2994;51.220;4.412;2023-08-31T13:44:41;23.09;48.32
5938;DHT22;2994;51.220;4.412;2023-08-31T13:47:06;23.02;48.56
5938;DHT22;2994;51.220;4.412;2023-08-31T13:49:32;23.12;48.23
5938;DHT22;2994;51.220;4.412;2023-08-31T13:51:59;23.14;46.78
5938;DHT22;2994;51.220;4.412;2023-08-31T13:54:25;23.13;47.06
5938;DHT22;2994;51.220;4.412;2023-08-31T13:56:51;23.06;47.38
5938;DHT22;2994;51.220;4.412;2023-08-31T13:59:16;22.93;48.24
5938;DHT22;2994;51.220;4.412;2023-08-31T14:01:42;22.97;47.86
5938;DHT22;2994;51.220;4.412;2023-08-31T14:04:07;22.96;47.65
5938;DHT22;2994;51.220;4.412;2023-08-31T14:06:33;23.07;47.45
5938;DHT22;2994;51.220;4.412;2023-08-31T14:08:58;23.13;46.93
5938;DHT22;2994;51.220;4.412;2023-08-31T14:11:24;23.26;47.37
5938;DHT22;2994;51.220;4.412;2023-08-31T14:13:50;23.11;47.20
5938;DHT22;2994;51.220;4.412;2023-08-31T14:16:17;23.29;47.60
5938;DHT22;2994;51.220;4.412;2023-08-31T14:18:43;23.31;47.44
5938;DHT22;2994;51.220;4.412;2023-08-31T14:21:15;23.42;46.70
5938;DHT22;2994;51.220;4.412;2023-08-31T14:23:40;23.45;46.68
5938;DHT22;2994;51.220;4.412;2023-08-31T14:26:06;23.52;45.64
5938;DHT22;2994;51.220;4.412;2023-08-31T14:28:31;23.35;44.59
5938;DHT22;2994;51.220;4.412;2023-08-31T14:30:57;23.36;45.73
5938;DHT22;2994;51.220;4.412;2023-08-31T14:33:22;23.44;44.76
5938;DHT22;2994;51.220;4.412;2023-08-31T14:35:50;23.56;44.52
5938;DHT22;2994;51.220;4.412;2023-08-31T14:38:20;23.53;44.25
5938;DHT22;2994;51.220;4.412;2023-08-31T14:40:47;23.43;44.34
5938;DHT22;2994;51.220;4.412;2023-08-31T14:43:12;23.31;44.58
5938;DHT22;2994;51.220;4.412;2023-08-31T14:45:38;23.17;45.18
5938;DHT22;2994;51.220;4.412;2023-08-31T14:48:04;23.12;45.54
5938;DHT22;2994;51.220;4.412;2023-08-31T14:50:29;23.10;45.55
5938;DHT22;2994;51.220;4.412;2023-08-31T14:52:55;23.10;45.36
5938;DHT22;2994;51.220;4.412;2023-08-31T14:55:21;23.06;45.38
5938;DHT22;2994;51.220;4.412;2023-08-31T14:57:46;22.99;46.09
5938;DHT22;2994;51.220;4.412;2023-08-31T15:00:13;22.97;46.28
5938;DHT22;2994;51.220;4.412;2023-08-31T15:02:38;22.99;45.95
5938;DHT22;2994;51.220;4.412;2023-08-31T15:05:04;22.97;46.00
5938;DHT22;2994;51.220;4.412;2023-08-31T15:07:30;23.00;46.60
5938;DHT22;2994;51.220;4.412;2023-08-31T15:09:56;23.00;46.70
5938;DHT22;2994;51.220;4.412;2023-08-31T15:12:21;23.01;46.92
5938;DHT22;2994;51.220;4.412;2023-08-31T15:14:47;23.09;46.68
5938;DHT22;2994;51.220;4.412;2023-08-31T15:17:12;23.02;46.94
5938;DHT22;2994;51.220;4.412;2023-08-31T15:19:38;23.02;46.50
5938;DHT22;2994;51.220;4.412;2023-08-31T15:22:03;22.99;47.18
5938;DHT22;2994;51.220;4.412;2023-08-31T15:24:30;22.95;46.70
5938;DHT22;2994;51.220;4.412;2023-08-31T15:26:55;22.88;46.54
5938;DHT22;2994;51.220;4.412;2023-08-31T15:29:21;22.76;47.25
5938;DHT22;2994;51.220;4.412;2023-08-31T15:37:50;22.61;48.44
5938;DHT22;2994;51.220;4.412;2023-08-31T15:40:23;22.54;48.50
5938;DHT22;2994;51.220;4.412;2023-08-31T15:43:02;22.49;48.51
5938;DHT22;2994;51.220;4.412;2023-08-31T16:12:18;22.33;48.99
5938;DHT22;2994;51.220;4.412;2023-08-31T16:14:48;22.26;49.20
5938;DHT22;2994;51.220;4.412;2023-08-31T16:19:52;22.21;49.66
5938;DHT22;2994;51.220;4.412;2023-08-31T16:22:28;22.21;49.60
5938;DHT22;2994;51.220;4.412;2023-08-31T16:24:53;22.21;50.08
5938;DHT22;2994;51.220;4.412;2023-08-31T16:27:19;22.20;49.92
5938;DHT22;2994;51.220;4.412;2023-08-31T16:29:44;22.16;50.46
5938;DHT22;2994;51.220;4.412;2023-08-31T16:32:26;22.14;50.30
5938;DHT22;2994;51.220;4.412;2023-08-31T16:34:52;22.11;50.53
5938;DHT22;2994;51.220;4.412;2023-08-31T16:37:20;22.11;50.69
5938;DHT22;2994;51.220;4.412;2023-08-31T16:39:46;22.11;50.32
5938;DHT22;2994;51.220;4.412;2023-08-31T16:42:12;22.11;50.05
5938;DHT22;2994;51.220;4.412;2023-08-31T16:44:39;22.09;49.99
5938;DHT22;2994;51.220;4.412;2023-08-31T16:47:05;22.12;50.16
5938;DHT22;2994;51.220;4.412;2023-08-31T16:49:31;22.13;49.96
5938;DHT22;2994;51.220;4.412;2023-08-31T16:51:56;22.11;49.90
5938;DHT22;2994;51.220;4.412;2023-08-31T16:54:22;22.07;49.79
5938;DHT22;2994;51.220;4.412;2023-08-31T16:56:48;22.07;49.65
5938;DHT22;2994;51.220;4.412;2023-08-31T16:59:16;22.03;50.37
5938;DHT22;2994;51.220;4.412;2023-08-31T17:01:41;22.01;50.20
5938;DHT22;2994;51.220;4.412;2023-08-31T17:04:07;21.97;50.39
5938;DHT22;2994;51.220;4.412;2023-08-31T17:06:32;21.93;50.69
5938;DHT22;2994;51.220;4.412;2023-08-31T17:08:58;21.91;50.92
5938;DHT22;2994;51.220;4.412;2023-08-31T17:11:23;21.89;51.11
5938;DHT22;2994;51.220;4.412;2023-08-31T17:13:49;21.85;51.51
5938;DHT22;2994;51.220;4.412;2023-08-31T17:16:17;21.87;51.50
5938;DHT22;2994;51.220;4.412;2023-08-31T17:18:43;21.82;51.75
5938;DHT22;2994;51.220;4.412;2023-08-31T17:21:08;21.81;51.82
5938;DHT22;2994;51.220;4.412;2023-08-31T17:23:34;21.76;52.12
5938;DHT22;2994;51.220;4.412;2023-08-31T17:26:01;21.73;52.27
5938;DHT22;2994;51.220;4.412;2023-08-31T17:28:27;21.66;52.46
5938;DHT22;2994;51.220;4.412;2023-08-31T17:30:53;21.66;52.62
5938;DHT22;2994;51.220;4.412;2023-08-31T17:33:20;21.62;52.98
5938;DHT22;2994;51.220;4.412;2023-08-31T17:35:50;21.60;53.17
5938;DHT22;2994;51.220;4.412;2023-08-31T17:38:15;21.52;53.56
5938;DHT22;2994;51.220;4.412;2023-08-31T17:40:42;21.52;53.83
5938;DHT22;2994;51.220;4.412;2023-08-31T17:43:09;21.47;54.10
5938;DHT22;2994;51.220;4.412;2023-08-31T17:45:34;21.45;54.48
5938;DHT22;2994;51.220;4.412;2023-08-31T17:48:00;21.44;55.02
5938;DHT22;2994;51.220;4.412;2023-08-31T17:50:25;21.37;55.50